Abeille Honfleur 19 — FV6095 — position and weather

sailwx.info

Track history (hours):
 
Tides and Currents Weather Stations Pressure Air Temp Water Temp Dewpoint Dewpoint Depression Visibility Wind Speed Wind Dir Waves Ship Positions

Abeille Honfleur 19

Last reported at 2015-Aug-04 11:23 UTC. Time now 2015-Aug-04 11:47 UTC.
Position N 47°17' W 002°10'.

Length 30 m.

Type: Tug. MMSI: 227005280.

Date/timePositionNaut miles runAvg speedWind from/ knotsBaromVisibWave heightAir tempDewpointWater temp
2015-Aug-04 11:23N 47°17' W 002°10'0 0.0
2015-Aug-03 17:24N 47°17' W 002°10'2 1.4
2015-Aug-03 16:14N 47°16' W 002°12'0 0.0
2015-Aug-03 08:32N 47°16' W 002°12'3 1.4
2015-Aug-03 06:32N 47°18' W 002°09'0 0.0
2015-Aug-03 05:25N 47°18' W 002°09'0 0.0
2015-Aug-03 04:26N 47°18' W 002°09'0 0.0
2015-Aug-03 03:32N 47°18' W 002°09'0 0.0
2015-Aug-03 02:31N 47°18' W 002°09'0 0.0
2015-Aug-03 01:32N 47°18' W 002°09'0 0.0
2015-Aug-03 00:29N 47°18' W 002°09'0 0.0
2015-Aug-02 23:31N 47°18' W 002°09'0 0.0
2015-Aug-02 22:32N 47°18' W 002°09'0 0.0
2015-Aug-02 21:29N 47°18' W 002°09'0 0.0
2015-Aug-02 20:32N 47°18' W 002°09'0 0.0
2015-Aug-02 19:29N 47°18' W 002°09'0 0.0
2015-Aug-02 18:29N 47°18' W 002°09'0 0.0
2015-Aug-02 10:28N 47°18' W 002°09'0 0.0
2015-Aug-02 09:28N 47°18' W 002°09'0 0.0
2015-Aug-02 08:28N 47°18' W 002°09'0 0.0
2015-Aug-02 07:31N 47°18' W 002°09'3 2.2
2015-Aug-02 06:13N 47°16' W 002°12'0 0.0
2015-Aug-02 05:31N 47°16' W 002°12'0 0.3
2015-Aug-02 04:33N 47°16' W 002°12'5 4.5
2015-Aug-02 03:32N 47°18' W 002°06'1 0.6
2015-Aug-02 02:33N 47°18' W 002°05'0 0.0
2015-Aug-02 01:33N 47°18' W 002°05'0 0.0
2015-Aug-02 00:33N 47°18' W 002°05'0 0.0
2015-Aug-01 23:33N 47°18' W 002°05'0 0.0
2015-Aug-01 22:33N 47°18' W 002°05'0 0.0
2015-Aug-01 21:33N 47°18' W 002°05'0 0.0
2015-Aug-01 20:33N 47°18' W 002°05'1 1.3
2015-Aug-01 19:33N 47°18' W 002°03'1211.6
2015-Aug-01 18:33N 47°13' W 001°48'17 1.5
2015-Aug-01 07:20N 47°16' W 002°12'0 0.0
2015-Aug-01 06:32N 47°16' W 002°12'0 0.0
2015-Aug-01 05:26N 47°16' W 002°12'4 4.2
2015-Aug-01 04:30N 47°18' W 002°07'4 4.2
2015-Aug-01 03:33N 47°16' W 002°12'0 0.0
2015-Aug-01 02:22N 47°16' W 002°12'0 0.0
2015-Aug-01 01:28N 47°16' W 002°12'0 0.0
2015-Jul-31 06:10N 47°16' W 002°12'4 5.4
2015-Jul-31 05:31N 47°18' W 002°08'2 1.9
2015-Jul-31 04:34N 47°18' W 002°05'6 6.4
2015-Jul-31 03:33N 47°17' W 001°56'7 7.5
2015-Jul-31 02:33N 47°13' W 001°47'7 6.7
2015-Jul-31 01:33N 47°12' W 001°37'0 0.3
2015-Jul-31 00:32N 47°12' W 001°37'5 5.3
2015-Jul-30 23:34N 47°12' W 001°44'7 6.6
2015-Jul-30 22:33N 47°16' W 001°52'7 7.1
2015-Jul-30 21:33N 47°18' W 002°02'7 0.2
2015-Jul-29 07:04N 47°16' W 002°12'3 1.9
2015-Jul-29 05:32N 47°18' W 002°09'0 0.0
2015-Jul-29 04:32N 47°18' W 002°09'0 0.0
2015-Jul-29 03:32N 47°18' W 002°09'0 0.0
2015-Jul-29 02:29N 47°18' W 002°09'0 0.0
2015-Jul-29 01:32N 47°18' W 002°09'0 0.0
2015-Jul-29 00:26N 47°18' W 002°09'0 0.0
2015-Jul-28 23:32N 47°18' W 002°09'0 0.0
2015-Jul-28 21:32N 47°18' W 002°09'2 0.1
2015-Jul-28 07:11N 47°17' W 002°11'1 0.1
2015-Jul-27 10:09N 47°16' W 002°12'2 0.4
2015-Jul-27 06:24N 47°17' W 002°10'2 0.0
2015-Jul-25 21:17N 47°16' W 002°12'  
Track history (hours):
 
Tides and Currents Weather Stations Pressure Air Temp Water Temp Dewpoint Dewpoint Depression Visibility Wind Speed Wind Dir Waves Ship Positions

Abeille Honfleur 19

Last reported at 2015-Aug-04 11:23 UTC. Time now 2015-Aug-04 11:47 UTC.
Position N 47°17' W 002°10'.

Length 30 m.

Type: Tug. MMSI: 227005280.

Date/timePositionNaut miles runAvg speedWind from/ knotsBaromVisibWave heightAir tempDewpointWater temp
2015-Aug-04 11:23N 47°17' W 002°10'0 0.0
2015-Aug-03 17:24N 47°17' W 002°10'2 1.4
2015-Aug-03 16:14N 47°16' W 002°12'0 0.0
2015-Aug-03 08:32N 47°16' W 002°12'3 1.4
2015-Aug-03 06:32N 47°18' W 002°09'0 0.0
2015-Aug-03 05:25N 47°18' W 002°09'0 0.0
2015-Aug-03 04:26N 47°18' W 002°09'0 0.0
2015-Aug-03 03:32N 47°18' W 002°09'0 0.0
2015-Aug-03 02:31N 47°18' W 002°09'0 0.0
2015-Aug-03 01:32N 47°18' W 002°09'0 0.0
2015-Aug-03 00:29N 47°18' W 002°09'0 0.0
2015-Aug-02 23:31N 47°18' W 002°09'0 0.0
2015-Aug-02 22:32N 47°18' W 002°09'0 0.0
2015-Aug-02 21:29N 47°18' W 002°09'0 0.0
2015-Aug-02 20:32N 47°18' W 002°09'0 0.0
2015-Aug-02 19:29N 47°18' W 002°09'0 0.0
2015-Aug-02 18:29N 47°18' W 002°09'0 0.0
2015-Aug-02 10:28N 47°18' W 002°09'0 0.0
2015-Aug-02 09:28N 47°18' W 002°09'0 0.0
2015-Aug-02 08:28N 47°18' W 002°09'0 0.0
2015-Aug-02 07:31N 47°18' W 002°09'3 2.2
2015-Aug-02 06:13N 47°16' W 002°12'0 0.0
2015-Aug-02 05:31N 47°16' W 002°12'0 0.3
2015-Aug-02 04:33N 47°16' W 002°12'5 4.5
2015-Aug-02 03:32N 47°18' W 002°06'1 0.6
2015-Aug-02 02:33N 47°18' W 002°05'0 0.0
2015-Aug-02 01:33N 47°18' W 002°05'0 0.0
2015-Aug-02 00:33N 47°18' W 002°05'0 0.0
2015-Aug-01 23:33N 47°18' W 002°05'0 0.0
2015-Aug-01 22:33N 47°18' W 002°05'0 0.0
2015-Aug-01 21:33N 47°18' W 002°05'0 0.0
2015-Aug-01 20:33N 47°18' W 002°05'1 1.3
2015-Aug-01 19:33N 47°18' W 002°03'1211.6
2015-Aug-01 18:33N 47°13' W 001°48'17 1.5
2015-Aug-01 07:20N 47°16' W 002°12'0 0.0
2015-Aug-01 06:32N 47°16' W 002°12'0 0.0
2015-Aug-01 05:26N 47°16' W 002°12'4 4.2
2015-Aug-01 04:30N 47°18' W 002°07'4 4.2
2015-Aug-01 03:33N 47°16' W 002°12'0 0.0
2015-Aug-01 02:22N 47°16' W 002°12'0 0.0
2015-Aug-01 01:28N 47°16' W 002°12'0 0.0
2015-Jul-31 06:10N 47°16' W 002°12'4 5.4
2015-Jul-31 05:31N 47°18' W 002°08'2 1.9
2015-Jul-31 04:34N 47°18' W 002°05'6 6.4
2015-Jul-31 03:33N 47°17' W 001°56'7 7.5
2015-Jul-31 02:33N 47°13' W 001°47'7 6.7
2015-Jul-31 01:33N 47°12' W 001°37'0 0.3
2015-Jul-31 00:32N 47°12' W 001°37'5 5.3
2015-Jul-30 23:34N 47°12' W 001°44'7 6.6
2015-Jul-30 22:33N 47°16' W 001°52'7 7.1
2015-Jul-30 21:33N 47°18' W 002°02'7 0.2
2015-Jul-29 07:04N 47°16' W 002°12'3 1.9
2015-Jul-29 05:32N 47°18' W 002°09'0 0.0
2015-Jul-29 04:32N 47°18' W 002°09'0 0.0
2015-Jul-29 03:32N 47°18' W 002°09'0 0.0
2015-Jul-29 02:29N 47°18' W 002°09'0 0.0
2015-Jul-29 01:32N 47°18' W 002°09'0 0.0
2015-Jul-29 00:26N 47°18' W 002°09'0 0.0
2015-Jul-28 23:32N 47°18' W 002°09'0 0.0
2015-Jul-28 21:32N 47°18' W 002°09'2 0.1
2015-Jul-28 07:11N 47°17' W 002°11'1 0.1
2015-Jul-27 10:09N 47°16' W 002°12'2 0.4
2015-Jul-27 06:24N 47°17' W 002°10'2 0.0
2015-Jul-25 21:17N 47°16' W 002°12'  

Dump ship's entire track history